Flight Track Log - Related Links

Times and Time Zones

All times are in EDT time to prevent confusion due to time zone crossing. See the SWA923 flight status page for this flight to view local times or setup timezone preferences in your user account.

Time Position Orientation Groundspeed Altitude Reporting Facility
EDT Latitude Longitude Course Direction KTS MPH feet Rate Location/Type
Sun 09:41:21 PM 36.0642 -115.2539 259° West 224 258 5,300  Level Los Angeles Center
Sun 09:41:32 PM 36.0494 -115.2647 211° Southwest 251 289 6,000 2,958 Climbing Los Angeles Center
Sun 09:42:32 PM 35.9850 -115.2964 202° Southwest 269 310 8,800 2,732 Climbing Los Angeles Center
Sun 09:43:24 PM 35.9331 -115.3472 218° Southwest 286 329 11,100 2,526 Climbing Los Angeles Center
Sun 09:44:26 PM 35.9094 -115.4525 255° West 340 391 13,600 2,565 Climbing Los Angeles Center
Sun 09:45:28 PM 35.9056 -115.5872 268° West 365 420 16,400 3,290 Climbing Los Angeles Center
Sun 09:46:30 PM 35.9031 -115.7167 269° West 377 434 20,400 3,290 Climbing Los Angeles Center
Sun 09:47:32 PM 35.9011 -115.8519 269° West 370 426 23,200 2,274 Climbing Los Angeles Center
Sun 09:48:34 PM 35.9244 -115.9611 285° West 386 444 25,100 2,032 Climbing Los Angeles Center
Sun 09:49:36 PM 35.9786 -116.0822 299° West 400 460 27,400 2,226 Climbing Los Angeles Center
Sun 09:50:38 PM 36.0433 -116.2292 299° West 404 465 29,700 2,098 Climbing Los Angeles Center
Sun 09:51:39 PM 36.0972 -116.3506 299° West 406 467 31,700 1,805 Climbing Los Angeles Center
Sun 09:52:41 PM 36.1525 -116.4756 299° West 412 474 33,400 1,742 Climbing Los Angeles Center
Sun 09:53:43 PM 36.2053 -116.5972 298° West 407 468 35,300 1,645 Climbing Los Angeles Center
Sun 09:54:45 PM 36.2594 -116.7192 299° West 405 466 36,800 1,306 Climbing Los Angeles Center
Sun 09:55:47 PM 36.3111 -116.8400 298° West 401 461 38,000 1,161 Climbing Los Angeles Center
Sun 09:56:49 PM 36.3739 -116.9844 298° West 401 461 39,200 968 Climbing Los Angeles Center
Sun 09:57:51 PM 36.4256 -117.1056 298° West 401 461 40,000 390 Climbing Los Angeles Center
Sun 09:58:52 PM 36.4778 -117.2272 298° West 400 460 40,000  Level Los Angeles Center
Sun 09:59:54 PM 36.5308 -117.3525 298° West 402 463 40,000  Level Los Angeles Center
Sun 10:00:56 PM 36.5833 -117.4794 297° West 408 470 40,000  Level Los Angeles Center
Sun 10:01:58 PM 36.6372 -117.6039 298° West 408 470 40,000  Level Los Angeles Center
Sun 10:02:31 PM 36.6747 -117.6958 297° West 407 468 40,000  Level Oakland Center
Sun 10:03:32 PM 36.7267 -117.8189 298° West 407 468 40,000  Level Oakland Center
Sun 10:04:34 PM 36.7792 -117.9444 298° West 407 468 40,000  Level Oakland Center
Sun 10:05:35 PM 36.8283 -118.0653 297° West 396 456 40,000  Level Oakland Center
Sun 10:06:36 PM 36.8814 -118.1919 298° West 404 465 40,000  Level Oakland Center
Sun 10:07:37 PM 36.9331 -118.3167 297° West 405 466 40,000  Level Oakland Center
Sun 10:08:38 PM 36.9842 -118.4411 297° West 404 465 40,000  Level Oakland Center
Sun 10:09:40 PM 37.0342 -118.5650 297° West 395 455 40,000  Level Oakland Center
Sun 10:10:41 PM 37.0839 -118.6914 296° West 401 461 40,000  Level Oakland Center
Sun 10:11:42 PM 37.1350 -118.8161 297° West 402 463 40,000  Level Oakland Center
Sun 10:12:43 PM 37.1867 -118.9433 297° West 407 468 40,000  Level Oakland Center
Sun 10:13:45 PM 37.2486 -119.0961 297° West 409 471 40,000  Level Oakland Center
Sun 10:14:46 PM 37.2997 -119.2256 296° West 411 473 40,000 -246 Level Oakland Center
Sun 10:15:47 PM 37.3508 -119.3525 297° West 411 473 39,500 -639 Descending Oakland Center
Sun 10:16:48 PM 37.4003 -119.4758 297° West 400 460 38,700 -829 Descending Oakland Center
Sun 10:17:50 PM 37.4436 -119.5903 296° West 399 459 37,800 -1,610 Descending Oakland Center
Sun 10:18:51 PM 37.5036 -119.7408 297° West 401 461 35,400 -2,656 Descending Oakland Center
Sun 10:19:52 PM 37.5539 -119.8694 296° West 407 468 32,400 -1,672 Descending Oakland Center
Sun 10:20:53 PM 37.6056 -119.9994 297° West 412 474 32,000 -488 Descending Oakland Center
Sun 10:21:55 PM 37.6567 -120.1314 296° West 414 476 31,400 -780 Descending Oakland Center
Sun 10:22:56 PM 37.7075 -120.2614 296° West 415 478 30,400 -1,131 Descending Oakland Center
Sun 10:23:57 PM 37.7567 -120.3886 296° West 409 471 29,100 -1,820 Descending Oakland Center
Sun 10:24:58 PM 37.8044 -120.5142 296° West 400 460 26,700 -1,721 Descending Oakland Center
Sun 10:25:59 PM 37.8508 -120.6367 296° West 388 447 25,600 -1,415 Descending Oakland Center
Sun 10:27:01 PM 37.8578 -120.7689 274° West 381 438 23,800 -2,208 Descending Oakland Center
Sun 10:28:04 PM 37.8333 -120.9167 258° West 377 434 21,000 -2,465 Descending Northern Cal TRACON
Sun 10:29:10 PM 37.8000 -121.0500 252° West 389 448 18,500 -2,350 Descending Northern Cal TRACON
Sun 10:30:04 PM 37.7667 -121.1667 250° West 396 456 16,300 -2,400 Descending Northern Cal TRACON
Sun 10:31:10 PM 37.7333 -121.3000 252° West 372 428 13,700 -2,238 Descending Northern Cal TRACON
Sun 10:32:10 PM 37.7167 -121.4167 260° West 351 404 11,600 -1,800 Descending Northern Cal TRACON
Sun 10:33:10 PM 37.6833 -121.5500 253° West 336 387 10,100 -1,400 Descending Northern Cal TRACON
Sun 10:34:10 PM 37.6667 -121.6500 258° West 299 344 8,800 -1,350 Descending Northern Cal TRACON
Sun 10:35:10 PM 37.6333 -121.7500 247° West 290 334 7,400 -1,579 Descending Northern Cal TRACON
Sun 10:36:04 PM 37.6167 -121.8333 256° West 286 329 5,800 -1,571 Descending Northern Cal TRACON
Sun 10:37:16 PM 37.6167 -121.9500 270° West 274 315 4,100 -1,143 Descending Northern Cal TRACON
Sun 10:38:10 PM 37.6000 -122.0167 253° West 257 296 3,400 -850 Descending Northern Cal TRACON
Sun 10:39:16 PM 37.6333 -122.1000 297° West 198 228 2,400 -950 Descending Northern Cal TRACON
Sun 10:40:10 PM 37.6500 -122.1500 293° West 168 193 1,500 -833 Descending Northern Cal TRACON
Sun 10:41:04 PM 37.6833 -122.1833 322° Northwest 135 155 900 -667 Descending Northern Cal TRACON
Sun 10:44:00 PM 37.7167 -122.2167 270° West  Level FlightAware Approximate

Login

Don't have an account? Register now (free) for customized features, flight alerts, and more!